Time;durP1;ratioP1;P1;durP2;ratioP2;P2;SDS_P1;SDS_P2;PMS_P1;PMS_P2;Temp;Humidity;BMP_temperature;BMP_pressure;BME280_temperature;BME280_humidity;BME280_pressure;Samples;Min_cycle;Max_cycle;Signal;HPM_P1;HPM_P2
2022/01/28 00:01:58;;;;;;;5.15;1.00;;;4.80;99.90;;;;;;5100770;27;20035;-86
2022/01/28 00:04:24;;;;;;;2.47;1.00;;;4.40;99.90;;;;;;5117620;27;20404;-86
2022/01/28 00:06:49;;;;;;;2.95;0.80;;;4.60;99.90;;;;;;5100127;27;20035;-86
2022/01/28 00:09:15;;;;;;;15.00;1.38;;;4.30;99.90;;;;;;5100871;27;20043;-86
2022/01/28 00:11:41;;;;;;;12.30;1.98;;;4.20;99.90;;;;;;5100498;27;20039;-85
2022/01/28 00:14:21;;;;;;;3.83;1.88;;;4.20;99.90;;;;;;5100509;27;20047;-86
2022/01/28 00:17:30;;;;;;;3.47;0.90;;;4.20;99.90;;;;;;5100044;27;20066;-86
2022/01/28 00:20:06;;;;;;;4.50;0.85;;;4.10;99.90;;;;;;5117342;27;20142;-86
2022/01/28 00:38:56;;;;;;;5.22;0.90;;;4.10;99.90;;;;;;5116672;27;20427;-86
2022/01/28 00:41:22;;;;;;;5.05;2.58;;;4.10;99.90;;;;;;5099878;27;20027;-86
2022/01/28 00:43:48;;;;;;;1.02;0.95;;;4.10;99.90;;;;;;5099983;27;20551;-86
2022/01/28 00:46:13;;;;;;;5.50;1.23;;;4.20;99.90;;;;;;5099799;27;20126;-86
2022/01/28 00:48:39;;;;;;;6.93;2.10;;;4.10;99.90;;;;;;5099950;27;20035;-86
2022/01/28 00:51:06;;;;;;;5.43;0.80;;;4.20;99.90;;;;;;5116732;27;20043;-86
2022/01/28 00:53:31;;;;;;;8.45;1.70;;;4.20;99.90;;;;;;5117007;27;20039;-86
2022/01/28 00:55:57;;;;;;;6.80;0.82;;;4.20;99.90;;;;;;5116641;27;20034;-86
2022/01/28 00:58:24;;;;;;;3.50;1.30;;;4.20;99.90;;;;;;5099268;27;20483;-86
2022/01/28 01:00:50;;;;;;;0.93;0.63;;;4.20;99.90;;;;;;5116618;27;20047;-86
2022/01/28 01:03:16;;;;;;;10.80;1.88;;;4.30;99.90;;;;;;5099595;27;20487;-86
2022/01/28 01:05:42;;;;;;;8.30;2.20;;;4.30;99.90;;;;;;5115915;27;20087;-86
2022/01/28 01:08:08;;;;;;;2.10;1.02;;;4.30;99.90;;;;;;5099027;27;20054;-86
2022/01/28 01:10:34;;;;;;;6.05;0.93;;;4.30;99.90;;;;;;5099619;27;20039;-86
2022/01/28 01:13:01;;;;;;;29.83;6.15;;;4.30;99.90;;;;;;5099723;27;20056;-85
2022/01/28 01:15:32;;;;;;;8.30;1.45;;;4.30;99.90;;;;;;5099590;27;20046;-85
2022/01/28 01:23:05;;;;;;;4.10;1.13;;;4.50;99.90;;;;;;5116104;27;20134;-83
2022/01/28 01:25:37;;;;;;;11.30;1.23;;;4.50;99.90;;;;;;5084863;27;20035;-82
2022/01/28 01:28:03;;;;;;;7.85;1.10;;;4.50;99.90;;;;;;5098997;27;20031;-83
2022/01/28 01:30:32;;;;;;;6.85;1.92;;;4.50;99.90;;;;;;5099009;27;20420;-83
2022/01/28 01:32:58;;;;;;;2.03;0.98;;;4.50;99.90;;;;;;5099014;27;20049;-83
2022/01/28 01:35:24;;;;;;;7.50;1.17;;;4.50;99.90;;;;;;5098922;27;20437;-83
2022/01/28 01:37:49;;;;;;;4.15;1.48;;;4.50;99.90;;;;;;5098874;27;20129;-82
2022/01/28 01:40:20;;;;;;;4.20;1.30;;;4.40;99.90;;;;;;5098896;27;20470;-83
2022/01/28 01:42:54;;;;;;;1.67;1.30;;;4.40;99.90;;;;;;5098952;27;20027;-83
2022/01/28 01:53:30;;;;;;;5.90;1.30;;;4.40;99.90;;;;;;5115724;27;20053;-83
2022/01/28 01:55:56;;;;;;;6.82;1.58;;;4.40;99.90;;;;;;5116093;28;20546;-83
2022/01/28 01:58:26;;;;;;;2.10;0.50;;;4.40;99.90;;;;;;5098496;27;20036;-84
2022/01/28 02:00:52;;;;;;;2.00;0.93;;;4.40;99.90;;;;;;5098631;28;20490;-83
2022/01/28 02:03:17;;;;;;;3.63;1.35;;;4.30;99.90;;;;;;5115740;28;20126;-83
2022/01/28 02:05:43;;;;;;;15.95;4.15;;;4.40;99.90;;;;;;5115729;28;20548;-83
2022/01/28 02:08:09;;;;;;;6.95;1.00;;;4.40;99.90;;;;;;5098332;28;20053;-83
2022/01/28 02:10:35;;;;;;;2.92;1.02;;;4.50;99.90;;;;;;5098953;28;20039;-83
2022/01/28 02:13:00;;;;;;;9.32;2.13;;;4.50;99.90;;;;;;5098817;28;20091;-83
2022/01/28 02:15:26;;;;;;;2.55;0.73;;;4.50;99.90;;;;;;5115576;28;20039;-83
2022/01/28 02:17:52;;;;;;;5.65;1.35;;;4.50;99.90;;;;;;5117679;27;20035;-83
2022/01/28 02:20:31;;;;;;;9.18;2.03;;;4.80;99.90;;;;;;5119689;27;20042;-83
2022/01/28 02:22:56;;;;;;;9.07;1.27;;;4.50;99.90;;;;;;5102965;27;20092;-83
2022/01/28 02:25:27;;;;;;;4.97;0.80;;;4.40;99.90;;;;;;5102627;27;20396;-83
2022/01/28 02:27:55;;;;;;;18.48;2.33;;;4.40;99.90;;;;;;5102201;27;20076;-83
2022/01/28 02:30:21;;;;;;;13.75;1.83;;;4.30;99.90;;;;;;5102546;27;20043;-83
2022/01/28 02:32:49;;;;;;;4.55;1.15;;;4.30;99.90;;;;;;5085899;27;20039;-83
2022/01/28 02:35:15;;;;;;;7.32;1.50;;;4.30;99.90;;;;;;5102365;27;20404;-83
2022/01/28 02:37:40;;;;;;;2.03;0.93;;;4.30;99.90;;;;;;5101883;27;20072;-83
2022/01/28 02:40:07;;;;;;;3.38;1.33;;;4.20;99.90;;;;;;5102342;27;20730;-83
2022/01/28 02:43:19;;;;;;;4.25;1.77;;;4.30;99.90;;;;;;5102549;27;20575;-83
2022/01/28 02:45:36;;;;;;;2.67;1.05;;;4.30;99.90;;;;;;5115174;27;20628;-83
2022/01/28 02:48:06;;;;;;;3.70;1.02;;;4.40;99.90;;;;;;5102014;27;20042;-83
2022/01/28 02:50:41;;;;;;;9.73;1.90;;;4.40;99.90;;;;;;5102236;27;20043;-83
2022/01/28 02:53:09;;;;;;;6.57;1.00;;;4.50;99.90;;;;;;5119301;27;20047;-83
2022/01/28 02:55:39;;;;;;;16.98;2.75;;;4.50;99.90;;;;;;5102377;27;20075;-83
2022/01/28 02:58:17;;;;;;;3.90;1.15;;;4.60;99.90;;;;;;5101561;27;20035;-83
2022/01/28 03:00:43;;;;;;;4.90;0.88;;;4.60;99.90;;;;;;5118964;27;20039;-83
2022/01/28 03:03:09;;;;;;;15.77;1.13;;;4.60;99.90;;;;;;5101913;27;20039;-83
2022/01/28 03:05:35;;;;;;;4.75;1.35;;;4.70;99.90;;;;;;5118760;27;20088;-83
2022/01/28 03:08:03;;;;;;;8.25;2.15;;;4.60;99.90;;;;;;5118344;27;20054;-83
2022/01/28 03:13:31;;;;;;;5.53;1.63;;;4.70;99.90;;;;;;5118963;27;20074;-83
2022/01/28 03:15:53;;;;;;;11.32;2.00;;;4.80;99.90;;;;;;5117469;27;20525;-83
2022/01/28 03:18:23;;;;;;;3.95;1.10;;;4.80;99.90;;;;;;5118212;27;20099;-83
2022/01/28 03:23:17;;;;;;;9.75;1.05;;;4.80;99.90;;;;;;5117490;28;20050;-83
2022/01/28 03:25:44;;;;;;;4.20;1.98;;;4.70;99.90;;;;;;5100546;28;20476;-83
2022/01/28 03:28:10;;;;;;;2.78;1.17;;;5.00;99.90;;;;;;5099347;28;20031;-83
2022/01/28 03:30:36;;;;;;;6.82;1.10;;;4.70;99.90;;;;;;5117398;28;20484;-83
2022/01/28 03:33:02;;;;;;;4.95;1.20;;;4.80;99.90;;;;;;5100217;28;20087;-83
2022/01/28 03:35:29;;;;;;;7.10;1.17;;;4.80;99.90;;;;;;5117270;28;20046;-83
2022/01/28 03:38:06;;;;;;;7.43;1.52;;;4.70;99.90;;;;;;5116778;28;20521;-83
2022/01/28 03:40:36;;;;;;;2.25;1.30;;;4.70;99.90;;;;;;5100051;28;20035;-83
2022/01/28 03:43:02;;;;;;;9.25;1.55;;;4.70;99.90;;;;;;5100421;28;20035;-83
2022/01/28 03:45:28;;;;;;;7.30;1.63;;;4.70;99.90;;;;;;5100392;28;20035;-83
2022/01/28 03:47:54;;;;;;;0.55;0.50;;;4.70;99.90;;;;;;5099755;28;20031;-83
2022/01/28 03:50:20;;;;;;;3.80;0.73;;;4.60;99.90;;;;;;5100196;28;20043;-83
2022/01/28 03:52:45;;;;;;;2.58;1.13;;;4.60;99.90;;;;;;5099911;28;20396;-83
2022/01/28 03:55:11;;;;;;;16.55;1.33;;;4.60;99.90;;;;;;5099860;28;20192;-83
2022/01/28 03:57:37;;;;;;;3.55;2.38;;;4.50;99.90;;;;;;5116386;28;20507;-83
2022/01/28 04:00:05;;;;;;;3.35;1.23;;;4.50;99.90;;;;;;5099744;28;20143;-83
2022/01/28 04:02:33;;;;;;;7.78;1.05;;;4.50;99.90;;;;;;5099646;28;20043;-83
2022/01/28 04:12:55;;;;;;;5.63;1.92;;;4.40;99.90;;;;;;5116487;28;20115;-83
2022/01/28 04:15:35;;;;;;;9.57;1.50;;;4.30;99.90;;;;;;5099350;28;20641;-83
2022/01/28 04:18:00;;;;;;;3.30;1.00;;;4.30;99.90;;;;;;5099095;28;20084;-82
2022/01/28 04:20:26;;;;;;;1.85;0.80;;;4.40;99.90;;;;;;5099354;28;20043;-83
2022/01/28 04:22:51;;;;;;;5.65;2.08;;;4.40;99.90;;;;;;5064591;27;1015324;-83
2022/01/28 04:25:17;;;;;;;8.18;2.05;;;4.50;99.90;;;;;;5117341;27;20129;-85
2022/01/28 04:27:43;;;;;;;1.58;1.10;;;4.50;99.90;;;;;;5099912;27;20054;-85
2022/01/28 04:30:09;;;;;;;6.38;1.25;;;4.50;99.90;;;;;;5100301;27;20134;-85
2022/01/28 04:32:36;;;;;;;1.52;1.30;;;4.40;99.90;;;;;;5100197;27;20449;-86
2022/01/28 04:35:02;;;;;;;1.38;1.27;;;4.40;99.90;;;;;;5100081;27;20407;-85
2022/01/28 04:47:38;;;;;;;7.35;2.45;;;4.10;99.90;;;;;;5116444;27;20380;-83
2022/01/28 04:52:49;;;;;;;1.00;0.95;;;4.20;99.90;;;;;;5117053;27;20039;-83
2022/01/28 04:55:30;;;;;;;9.07;1.60;;;4.20;99.90;;;;;;5100094;27;20031;-83
2022/01/28 04:58:13;;;;;;;2.35;1.10;;;4.30;99.90;;;;;;5099483;27;20119;-82
2022/01/28 05:03:45;;;;;;;0.65;0.65;;;4.20;99.90;;;;;;5108621;27;20043;-83
2022/01/28 05:13:54;;;;;;;7.82;1.23;;;4.30;99.90;;;;;;5095443;28;20048;-84
2022/01/28 05:24:48;;;;;;;0.77;0.50;;;4.40;99.90;;;;;;5095046;28;20054;-83
2022/01/28 05:27:10;;;;;;;2.95;1.30;;;4.50;99.90;;;;;;5135603;27;20095;-83
2022/01/28 05:29:35;;;;;;;3.25;1.52;;;4.50;99.90;;;;;;5119153;27;20034;-83
2022/01/28 05:32:02;;;;;;;5.00;2.00;;;4.50;99.90;;;;;;5119053;27;20034;-82
2022/01/28 05:34:28;;;;;;;5.00;2.25;;;4.50;99.90;;;;;;5118540;27;20478;-83
2022/01/28 05:36:56;;;;;;;1.88;0.88;;;4.60;99.90;;;;;;5118834;27;20070;-83
2022/01/28 05:39:22;;;;;;;3.38;0.95;;;4.60;99.90;;;;;;5135810;27;20087;-83
2022/01/28 05:41:48;;;;;;;14.93;3.10;;;4.60;99.90;;;;;;5135885;27;20030;-83
2022/01/28 05:44:13;;;;;;;2.72;1.42;;;4.60;99.90;;;;;;5118823;27;20075;-83
2022/01/28 05:46:39;;;;;;;11.13;1.98;;;4.60;99.90;;;;;;5118260;27;20031;-82
2022/01/28 05:49:06;;;;;;;13.05;2.28;;;4.60;99.90;;;;;;5135900;27;20045;-83
2022/01/28 05:51:31;;;;;;;2.20;0.80;;;4.60;99.90;;;;;;5109716;27;20072;-83
2022/01/28 05:53:58;;;;;;;3.88;0.88;;;4.50;99.90;;;;;;5118788;27;20516;-83
2022/01/28 05:56:27;;;;;;;5.57;1.35;;;4.50;99.90;;;;;;5117989;27;20045;-84
2022/01/28 05:58:54;;;;;;;5.68;1.42;;;4.30;99.90;;;;;;5118410;27;20050;-83
2022/01/28 06:01:20;;;;;;;7.78;1.25;;;4.30;99.90;;;;;;5135647;27;20027;-83
2022/01/28 06:03:47;;;;;;;3.63;1.17;;;4.20;99.90;;;;;;5118397;27;20053;-83
2022/01/28 06:06:18;;;;;;;11.40;1.45;;;4.10;99.90;;;;;;5118344;27;20026;-83
2022/01/28 06:08:52;;;;;;;7.00;1.83;;;3.90;99.90;;;;;;5118453;27;20655;-83
2022/01/28 06:11:19;;;;;;;20.67;4.13;;;3.80;99.90;;;;;;5135727;27;20070;-82
2022/01/28 06:13:44;;;;;;;9.13;1.58;;;3.70;99.90;;;;;;5104608;27;20035;-83
2022/01/28 06:16:12;;;;;;;9.82;1.48;;;3.60;99.90;;;;;;5097671;28;20042;-83
2022/01/28 06:18:38;;;;;;;9.23;1.88;;;3.50;99.90;;;;;;5097787;28;20065;-82
2022/01/28 06:21:05;;;;;;;6.50;0.85;;;3.50;99.90;;;;;;5077438;28;20047;-83
2022/01/28 06:23:31;;;;;;;3.05;0.65;;;3.40;99.90;;;;;;5094794;28;20071;-83
2022/01/28 06:25:57;;;;;;;2.08;1.92;;;3.40;99.90;;;;;;5077937;28;20043;-83
2022/01/28 06:28:22;;;;;;;1.20;0.70;;;3.30;99.90;;;;;;5093924;28;20039;-83
2022/01/28 06:30:48;;;;;;;5.80;1.38;;;3.30;99.90;;;;;;5094523;28;20138;-83
2022/01/28 06:33:14;;;;;;;1.85;0.68;;;3.20;99.90;;;;;;5094376;28;20075;-83
2022/01/28 06:35:41;;;;;;;3.30;1.88;;;3.20;99.90;;;;;;5077456;28;20050;-83
2022/01/28 06:38:07;;;;;;;1.50;0.77;;;3.20;99.90;;;;;;5106158;27;20104;-83
2022/01/28 06:40:32;;;;;;;1.10;0.60;;;3.10;99.90;;;;;;5118028;27;20039;-83
2022/01/28 06:42:58;;;;;;;1.17;0.38;;;3.10;99.90;;;;;;5118174;27;20030;-83
2022/01/28 06:45:23;;;;;;;2.83;2.22;;;3.00;99.90;;;;;;5135154;27;20403;-83
2022/01/28 06:47:49;;;;;;;9.52;3.90;;;2.90;99.90;;;;;;5118135;27;20122;-83
2022/01/28 06:50:15;;;;;;;4.45;0.60;;;2.80;99.90;;;;;;5118187;27;20081;-83
2022/01/28 06:52:42;;;;;;;0.68;0.45;;;2.80;99.90;;;;;;5118086;27;20043;-84
2022/01/28 06:55:08;;;;;;;3.90;0.80;;;2.80;99.90;;;;;;5113426;28;20035;-82
2022/01/28 06:57:34;;;;;;;2.63;0.50;;;2.90;99.90;;;;;;5101270;28;20381;-83
2022/01/28 07:00:00;;;;;;;1.35;0.60;;;3.00;99.90;;;;;;5097614;28;20126;-83
2022/01/28 07:02:26;;;;;;;7.80;1.30;;;3.00;99.90;;;;;;5125556;27;20030;-83
2022/01/28 07:04:51;;;;;;;5.10;2.00;;;3.10;99.90;;;;;;5121496;27;20034;-83
2022/01/28 07:07:17;;;;;;;0.75;0.65;;;3.10;99.90;;;;;;5121590;27;20487;-83
2022/01/28 07:09:43;;;;;;;5.40;0.85;;;3.10;99.90;;;;;;5138650;27;20038;-83
2022/01/28 07:12:09;;;;;;;0.50;0.50;;;3.10;99.90;;;;;;5138892;27;20046;-82
2022/01/28 07:14:34;;;;;;;0.50;0.50;;;3.10;99.90;;;;;;5121859;27;20368;-83
2022/01/28 07:17:00;;;;;;;0.65;0.52;;;3.10;99.90;;;;;;5122249;27;20078;-82
2022/01/28 07:19:26;;;;;;;3.63;0.57;;;3.10;99.90;;;;;;5121444;27;20889;-83
2022/01/28 07:21:51;;;;;;;2.03;1.02;;;3.00;99.90;;;;;;5138588;27;20035;-82
2022/01/28 07:24:17;;;;;;;20.95;1.58;;;3.00;99.90;;;;;;5108492;27;20571;-83
2022/01/28 07:26:43;;;;;;;6.22;1.15;;;2.90;99.90;;;;;;5102774;27;20076;-83
2022/01/28 07:29:10;;;;;;;1.17;0.63;;;2.90;99.90;;;;;;5100809;27;20499;-83
2022/01/28 07:31:38;;;;;;;1.65;0.85;;;2.80;99.90;;;;;;5100809;27;20098;-83
2022/01/28 07:34:03;;;;;;;2.65;1.35;;;2.80;99.90;;;;;;5101057;27;20067;-83
2022/01/28 07:36:29;;;;;;;3.65;1.05;;;2.80;99.90;;;;;;5100103;27;20462;-83
2022/01/28 07:38:55;;;;;;;0.75;0.65;;;2.80;99.90;;;;;;5117638;27;20035;-82
2022/01/28 07:41:20;;;;;;;0.70;0.60;;;2.70;99.90;;;;;;5100489;27;20494;-83
2022/01/28 07:43:48;;;;;;;0.85;0.73;;;2.70;99.90;;;;;;5100534;27;20031;-83
2022/01/28 07:46:14;;;;;;;2.05;0.82;;;2.70;99.90;;;;;;5100078;27;20032;-83
2022/01/28 07:48:39;;;;;;;1.00;0.90;;;2.70;99.90;;;;;;5108993;27;20034;-83
2022/01/28 07:51:05;;;;;;;0.40;0.40;;;2.80;99.90;;;;;;5100354;27;20046;-83
2022/01/28 07:53:30;;;;;;;0.30;0.30;;;2.80;99.90;;;;;;5100383;27;20042;-83
2022/01/28 07:55:56;;;;;;;9.50;0.73;;;2.90;99.90;;;;;;5100472;27;20156;-83
2022/01/28 07:58:22;;;;;;;1.77;0.60;;;2.80;99.90;;;;;;5099799;27;20035;-85
2022/01/28 08:00:48;;;;;;;0.73;0.60;;;2.90;99.90;;;;;;5100145;27;20039;-86
2022/01/28 08:03:13;;;;;;;2.13;0.95;;;2.80;99.90;;;;;;5117552;27;20438;-85
2022/01/28 08:05:39;;;;;;;1.27;0.95;;;2.70;99.90;;;;;;5105031;27;20031;-86
2022/01/28 08:08:07;;;;;;;0.63;0.50;;;2.80;99.90;;;;;;5119967;27;20035;-85
2022/01/28 08:10:33;;;;;;;22.13;1.65;;;2.80;99.90;;;;;;5120480;27;20039;-85
2022/01/28 08:13:03;;;;;;;1.05;0.75;;;2.80;99.90;;;;;;5107828;27;20092;-85
2022/01/28 08:15:29;;;;;;;0.30;0.30;;;2.80;99.90;;;;;;5098812;27;20047;-85
2022/01/28 08:17:55;;;;;;;1.42;1.02;;;2.80;99.90;;;;;;5099835;27;20049;-86
2022/01/28 08:20:21;;;;;;;11.88;2.05;;;2.80;99.90;;;;;;5102400;27;21731;-85
2022/01/28 08:22:49;;;;;;;0.50;0.50;;;2.80;99.90;;;;;;5120242;27;20066;-85
2022/01/28 08:25:16;;;;;;;6.93;1.63;;;2.80;99.90;;;;;;5120352;27;20043;-85
2022/01/28 08:27:43;;;;;;;0.40;0.40;;;2.80;99.90;;;;;;5119745;27;20030;-85
2022/01/28 08:30:10;;;;;;;1.02;0.90;;;2.90;99.90;;;;;;5119930;27;20057;-85
2022/01/28 08:32:35;;;;;;;9.88;1.50;;;2.90;99.90;;;;;;5110954;27;20043;-86
2022/01/28 08:35:01;;;;;;;0.45;0.40;;;2.90;99.90;;;;;;5112231;27;20041;-85
2022/01/28 08:37:26;;;;;;;3.08;0.65;;;2.90;99.90;;;;;;5099216;27;20043;-85
2022/01/28 08:39:53;;;;;;;2.78;1.23;;;3.00;99.90;;;;;;5098669;27;20042;-85
2022/01/28 08:42:18;;;;;;;9.63;1.83;;;3.00;99.90;;;;;;5098979;27;20039;-85
2022/01/28 08:44:44;;;;;;;0.63;0.60;;;3.10;99.90;;;;;;5099728;27;20583;-85
2022/01/28 08:47:09;;;;;;;0.40;0.40;;;3.00;99.90;;;;;;5098575;27;20035;-85
2022/01/28 08:49:35;;;;;;;1.50;1.30;;;3.10;99.90;;;;;;5099087;27;20126;-85
2022/01/28 08:52:01;;;;;;;1.10;1.00;;;3.10;99.90;;;;;;5116065;27;20066;-85
2022/01/28 08:54:26;;;;;;;5.47;0.82;;;3.20;99.90;;;;;;5098688;27;20039;-85
2022/01/28 08:56:52;;;;;;;1.27;1.17;;;3.20;99.90;;;;;;5098637;27;20043;-84
2022/01/28 08:59:17;;;;;;;3.10;1.73;;;3.20;99.90;;;;;;5106975;27;20066;-85
2022/01/28 09:01:43;;;;;;;0.60;0.60;;;3.20;99.90;;;;;;5117410;27;20075;-85
2022/01/28 09:04:08;;;;;;;0.63;0.63;;;3.20;99.90;;;;;;5119368;27;20027;-86
2022/01/28 09:06:34;;;;;;;3.70;0.85;;;3.30;99.90;;;;;;5135477;27;20034;-85
2022/01/28 09:09:01;;;;;;;1.50;1.05;;;3.40;99.90;;;;;;5118956;27;20031;-85
2022/01/28 09:13:53;;;;;;;5.00;1.00;;;3.60;99.90;;;;;;5136160;27;20080;-85
2022/01/28 09:16:21;;;;;;;7.88;0.82;;;3.60;99.90;;;;;;5135333;27;20076;-85
2022/01/28 09:18:47;;;;;;;2.30;1.67;;;3.70;99.90;;;;;;5118861;27;20038;-85
2022/01/28 09:21:13;;;;;;;1.58;1.38;;;3.70;99.90;;;;;;5107737;27;20515;-86
2022/01/28 09:23:38;;;;;;;13.63;0.77;;;3.80;99.90;;;;;;5121070;27;20031;-86
2022/01/28 09:26:09;;;;;;;0.50;0.50;;;3.90;99.90;;;;;;5135276;27;20041;-86
2022/01/28 09:28:35;;;;;;;0.90;0.90;;;3.90;99.90;;;;;;5118701;27;20039;-85
2022/01/28 09:31:00;;;;;;;1.05;0.93;;;4.00;99.90;;;;;;5118901;27;20492;-85
2022/01/28 09:33:26;;;;;;;2.47;0.75;;;4.10;99.90;;;;;;5118470;27;20042;-85
2022/01/28 09:35:53;;;;;;;1.20;0.73;;;4.10;99.90;;;;;;5118414;27;20049;-85
2022/01/28 09:38:19;;;;;;;0.40;0.40;;;4.20;99.90;;;;;;5117924;27;20034;-85
2022/01/28 09:40:44;;;;;;;1.08;0.50;;;4.40;99.90;;;;;;5118351;27;20041;-86
2022/01/28 09:43:10;;;;;;;2.90;1.02;;;4.40;99.90;;;;;;5117964;27;20046;-86
2022/01/28 09:45:36;;;;;;;17.15;2.15;;;4.40;99.90;;;;;;5118516;27;20070;-85
2022/01/28 09:48:02;;;;;;;6.18;1.77;;;4.50;99.90;;;;;;5104195;27;20466;-85
2022/01/28 09:50:30;;;;;;;3.35;1.23;;;4.50;99.90;;;;;;5097678;27;20042;-85
2022/01/28 09:52:57;;;;;;;2.15;0.75;;;4.60;99.90;;;;;;5097997;27;20121;-85
2022/01/28 09:55:25;;;;;;;3.30;1.30;;;4.50;99.90;;;;;;5114789;27;20078;-85
2022/01/28 09:57:55;;;;;;;3.55;1.38;;;4.60;99.90;;;;;;5097231;27;20074;-86
2022/01/28 10:00:25;;;;;;;3.25;1.83;;;4.60;99.90;;;;;;5097691;28;20446;-85
2022/01/28 10:03:01;;;;;;;7.18;1.42;;;4.60;99.90;;;;;;5097938;28;20050;-86
2022/01/28 10:05:28;;;;;;;9.80;2.15;;;4.60;99.90;;;;;;5114752;28;20142;-85
2022/01/28 10:08:19;;;;;;;4.45;1.17;;;4.70;99.90;;;;;;5097116;28;20038;-86
2022/01/28 10:10:55;;;;;;;5.20;1.48;;;4.70;99.90;;;;;;5105876;27;20135;-86
2022/01/28 10:13:28;;;;;;;3.47;0.82;;;4.70;99.90;;;;;;5097835;28;20126;-85
2022/01/28 10:16:00;;;;;;;3.40;1.65;;;4.80;99.90;;;;;;5114593;28;20035;-85
2022/01/28 10:18:37;;;;;;;1.80;1.17;;;4.80;99.90;;;;;;5097210;28;20050;-86
2022/01/28 10:21:14;;;;;;;4.43;2.28;;;4.80;99.90;;;;;;5097260;28;20491;-86
2022/01/28 10:23:40;;;;;;;2.90;1.33;;;4.90;99.90;;;;;;5097702;28;20037;-85
2022/01/28 10:26:05;;;;;;;8.18;1.60;;;4.90;99.90;;;;;;5114391;28;20039;-86
2022/01/28 10:28:33;;;;;;;15.27;2.65;;;5.00;99.90;;;;;;5097394;28;20042;-86
2022/01/28 10:31:03;;;;;;;20.38;2.15;;;5.00;99.90;;;;;;5097427;28;20407;-86
2022/01/28 10:33:29;;;;;;;13.38;3.75;;;5.10;99.90;;;;;;5101398;27;20039;-86
2022/01/28 10:36:00;;;;;;;1.73;1.02;;;5.20;99.90;;;;;;5114261;27;20376;-86
2022/01/28 10:38:34;;;;;;;3.03;1.17;;;5.30;99.90;;;;;;5118783;27;20049;-86
2022/01/28 10:41:14;;;;;;;1.67;0.70;;;5.30;99.90;;;;;;5121917;27;20034;-86
2022/01/28 10:43:52;;;;;;;6.43;2.05;;;5.40;99.90;;;;;;5138897;27;20039;-86
2022/01/28 10:46:31;;;;;;;4.95;0.98;;;5.40;99.90;;;;;;5138460;27;20042;-86
2022/01/28 10:49:01;;;;;;;1.48;0.70;;;5.50;99.90;;;;;;5121759;27;20395;-86
2022/01/28 10:51:45;;;;;;;2.65;1.23;;;5.60;99.90;;;;;;5121983;27;20510;-87
2022/01/28 10:54:14;;;;;;;4.15;1.05;;;5.60;99.90;;;;;;5121549;27;20031;-84
2022/01/28 10:56:48;;;;;;;3.33;1.05;;;5.60;99.90;;;;;;5110295;27;20035;-83
2022/01/28 10:59:15;;;;;;;6.38;0.95;;;5.70;99.90;;;;;;5120802;27;20056;-83
2022/01/28 11:01:42;;;;;;;3.13;0.75;;;5.70;99.90;;;;;;5121588;27;20083;-83
2022/01/28 11:04:11;;;;;;;6.18;1.10;;;5.80;99.90;;;;;;5138574;27;20034;-84
2022/01/28 11:06:37;;;;;;;1.98;1.17;;;5.80;99.90;;;;;;5120805;27;20042;-84
2022/01/28 11:09:03;;;;;;;1.08;0.40;;;5.80;99.90;;;;;;5121297;27;20131;-83
2022/01/28 11:11:28;;;;;;;0.85;0.80;;;5.90;99.90;;;;;;5121249;27;20481;-84
2022/01/28 11:14:04;;;;;;;2.47;1.13;;;5.90;99.90;;;;;;5121458;27;20031;-83
2022/01/28 11:16:30;;;;;;;6.95;1.58;;;5.90;99.90;;;;;;5120741;27;20034;-84
2022/01/28 11:18:59;;;;;;;8.32;1.33;;;6.00;99.90;;;;;;5116747;27;20039;-84
2022/01/28 11:21:36;;;;;;;5.68;1.10;;;6.00;99.90;;;;;;5112120;27;20034;-84
2022/01/28 11:24:08;;;;;;;2.85;1.05;;;6.00;99.90;;;;;;5138183;27;20066;-83
2022/01/28 11:27:00;;;;;;;5.32;1.73;;;6.00;99.90;;;;;;5120639;27;20041;-83
2022/01/28 11:29:28;;;;;;;8.55;1.13;;;6.00;99.90;;;;;;5121114;27;20038;-86
2022/01/28 11:32:08;;;;;;;17.10;4.03;;;6.10;99.90;;;;;;5120863;27;20035;-86
2022/01/28 11:34:35;;;;;;;4.88;1.17;;;6.10;99.90;;;;;;5120824;27;20042;-86
2022/01/28 11:37:13;;;;;;;9.38;1.63;;;6.20;99.90;;;;;;5120354;27;20372;-86
2022/01/28 11:39:41;;;;;;;4.10;1.50;;;6.20;99.90;;;;;;5120441;27;20051;-86
2022/01/28 11:42:29;;;;;;;3.97;1.08;;;6.30;99.90;;;;;;5113837;27;20039;-84
2022/01/28 11:44:59;;;;;;;5.07;2.45;;;6.30;99.90;;;;;;5089671;27;20491;-83
2022/01/28 11:47:37;;;;;;;0.40;0.40;;;6.30;99.90;;;;;;5119975;27;20039;-84
2022/01/28 11:50:17;;;;;;;3.05;0.93;;;6.30;99.90;;;;;;5120040;27;20039;-84
2022/01/28 11:52:50;;;;;;;1.08;0.98;;;6.30;99.90;;;;;;5137737;27;20031;-83
2022/01/28 11:55:24;;;;;;;4.57;2.05;;;6.30;99.90;;;;;;5112330;27;20085;-83
2022/01/28 11:57:58;;;;;;;5.82;2.65;;;6.30;99.90;;;;;;5103913;27;20495;-84
2022/01/28 12:00:33;;;;;;;0.80;0.68;;;6.30;99.90;;;;;;5130219;27;20131;-84
2022/01/28 12:02:59;;;;;;;5.40;4.30;;;6.30;99.90;;;;;;5120284;27;20031;-84
2022/01/28 12:05:30;;;;;;;4.25;1.92;;;6.20;99.90;;;;;;5137069;27;20038;-83
2022/01/28 12:08:01;;;;;;;0.77;0.50;;;6.20;99.90;;;;;;5119813;27;20130;-84
2022/01/28 12:10:30;;;;;;;0.75;0.75;;;6.30;99.90;;;;;;5137209;27;20035;-83
2022/01/28 12:13:00;;;;;;;2.65;1.05;;;6.40;99.90;;;;;;5120058;27;20038;-84
2022/01/28 12:15:32;;;;;;;3.50;1.23;;;6.40;99.90;;;;;;5120004;27;20039;-84
2022/01/28 12:18:10;;;;;;;5.80;2.28;;;6.60;99.90;;;;;;5136712;27;20051;-84
2022/01/28 12:20:44;;;;;;;3.22;0.85;;;6.60;99.90;;;;;;5119879;27;20074;-83
2022/01/28 12:23:09;;;;;;;0.70;0.70;;;6.60;99.90;;;;;;5119779;27;20157;-83
2022/01/28 12:25:35;;;;;;;2.28;1.25;;;6.60;99.90;;;;;;5120217;27;20559;-83
2022/01/28 12:28:19;;;;;;;1.35;1.17;;;6.70;99.90;;;;;;5119316;27;20056;-84
2022/01/28 12:30:46;;;;;;;0.82;0.57;;;6.70;99.90;;;;;;5111220;27;20038;-84
2022/01/28 12:33:12;;;;;;;30.98;1.95;;;6.80;99.90;;;;;;5115209;27;20085;-83
2022/01/28 12:35:38;;;;;;;13.38;2.55;;;6.80;99.90;;;;;;5119912;27;20087;-83
2022/01/28 12:38:05;;;;;;;13.95;1.17;;;6.90;99.90;;;;;;5119092;27;20031;-84
2022/01/28 12:40:40;;;;;;;4.95;1.20;;;6.90;99.90;;;;;;5136678;27;20035;-83
2022/01/28 12:43:07;;;;;;;1.15;0.88;;;6.90;99.90;;;;;;5118942;27;20030;-83
2022/01/28 12:45:34;;;;;;;4.55;1.00;;;6.90;99.90;;;;;;5119568;27;20035;-83
2022/01/28 12:48:00;;;;;;;5.25;1.23;;;6.80;99.90;;;;;;5118798;27;20031;-83
2022/01/28 12:50:28;;;;;;;8.23;1.25;;;6.80;99.90;;;;;;5119180;27;20047;-83
2022/01/28 12:52:54;;;;;;;15.85;1.20;;;6.80;99.90;;;;;;5119554;27;20054;-84
2022/01/28 12:55:19;;;;;;;15.25;1.50;;;6.90;99.90;;;;;;5122972;27;20039;-84
2022/01/28 12:57:46;;;;;;;3.50;1.35;;;6.90;99.90;;;;;;5098352;27;20107;-83
2022/01/28 13:00:14;;;;;;;5.97;1.73;;;7.00;99.90;;;;;;5098222;27;20039;-83
2022/01/28 13:02:52;;;;;;;2.45;1.52;;;7.10;99.90;;;;;;5098340;27;20042;-84
2022/01/28 13:05:34;;;;;;;13.15;2.45;;;7.10;99.90;;;;;;5098560;27;20042;-84
2022/01/28 13:10:44;;;;;;;8.50;2.47;;;7.10;99.90;;;;;;5115420;27;20051;-83
2022/01/28 13:13:11;;;;;;;2.50;0.85;;;7.10;99.90;;;;;;5098449;27;20568;-83
2022/01/28 13:15:38;;;;;;;2.88;0.65;;;7.00;99.90;;;;;;5115333;27;20424;-83
2022/01/28 13:18:05;;;;;;;12.07;0.63;;;6.90;99.90;;;;;;5118849;27;20035;-83
2022/01/28 13:20:33;;;;;;;6.35;1.85;;;6.90;99.90;;;;;;5113236;27;20039;-83
2022/01/28 13:22:59;;;;;;;0.82;0.43;;;6.80;99.90;;;;;;5118552;27;20223;-84
2022/01/28 13:25:28;;;;;;;8.20;2.05;;;6.90;99.90;;;;;;5118870;27;20074;-84
2022/01/28 13:28:01;;;;;;;3.13;1.52;;;6.90;99.90;;;;;;5118618;27;20038;-83
2022/01/28 13:30:34;;;;;;;1.35;0.43;;;6.90;99.90;;;;;;5118596;27;20038;-83
2022/01/28 13:33:05;;;;;;;4.20;0.65;;;6.90;99.90;;;;;;5118524;27;20087;-83
2022/01/28 13:35:33;;;;;;;4.03;0.82;;;6.90;99.90;;;;;;5111638;27;20424;-83
2022/01/28 13:38:05;;;;;;;5.43;1.52;;;6.90;99.90;;;;;;5114293;27;20035;-83
2022/01/28 13:40:33;;;;;;;1.60;0.85;;;6.90;99.90;;;;;;5117125;27;20118;-83
2022/01/28 13:43:03;;;;;;;7.57;1.52;;;7.00;99.90;;;;;;5111401;27;20038;-83
2022/01/28 13:45:35;;;;;;;19.02;2.13;;;7.00;99.90;;;;;;5114777;27;20034;-83
2022/01/28 13:48:03;;;;;;;1.88;0.77;;;7.10;99.90;;;;;;5097651;27;20399;-83
2022/01/28 13:50:38;;;;;;;7.85;4.22;;;7.10;99.90;;;;;;5097778;27;20117;-84
2022/01/28 13:55:53;;;;;;;5.03;1.15;;;7.20;99.90;;;;;;5115075;27;19915;-83
2022/01/28 13:58:19;;;;;;;0.85;0.50;;;7.20;99.90;;;;;;5097540;27;20472;-84
2022/01/28 14:00:50;;;;;;;2.17;0.70;;;7.20;99.90;;;;;;5097870;27;20071;-83
2022/01/28 14:03:54;;;;;;;14.63;1.85;;;7.20;99.90;;;;;;5118109;27;20410;-84
2022/01/28 14:06:22;;;;;;;0.63;0.60;;;7.20;99.90;;;;;;5108789;27;20035;-83
2022/01/28 14:08:54;;;;;;;13.13;2.25;;;7.20;99.90;;;;;;5118151;27;20058;-83
2022/01/28 14:11:21;;;;;;;7.60;1.15;;;7.20;99.90;;;;;;5118160;27;20047;-83
2022/01/28 14:14:16;;;;;;;11.20;1.20;;;7.10;99.90;;;;;;5134605;27;20039;-83
2022/01/28 14:16:56;;;;;;;4.22;0.70;;;7.10;99.90;;;;;;5101946;27;20035;-83
2022/01/28 14:19:27;;;;;;;4.78;0.75;;;7.20;99.90;;;;;;5119149;27;20039;-82
2022/01/28 14:21:54;;;;;;;13.90;2.00;;;7.20;99.90;;;;;;5101903;27;20039;-84
2022/01/28 14:24:26;;;;;;;6.07;2.08;;;7.20;99.90;;;;;;5101992;27;20038;-83
2022/01/28 14:31:54;;;;;;;0.55;0.50;;;7.30;99.90;;;;;;5119157;27;20491;-84